Terminal Aerodrome Forecast
Issued by NWS Sioux Falls, SD

Home | Current Version | Previous Version | Text Only | Print | Product List | Glossary On
Versions: 1 2 3 4 5 6 7 8 9 10 11 12 13 14 15 16 17 18 19 20 21 22
000
FTUS43 KFSD 190538
TAFFSD
TAF
KFSD 190538Z 1906/2006 VRB03KT P6SM SKC
     FM191100 00000KT 3SM BR SKC
     FM191400 VRB04KT P6SM SKC
     FM191800 17010KT P6SM SKC
     FM200300 16006KT P6SM SCT070=

USA.gov is the U.S. government's official web portal to all federal, state and local government web resources and services.